KDMA/DMA METAR and TAF weather

Enter ICAO airport designator
Station Type Date Time Source
KDMA METAR 2021/01/20 18:56 UTC NOAA

KDMA 201856Z AUTO 14010KT 10SM CLR 18/03 A3012 RMK AO2 SLP174 T01830026 FZRANO $


Station Type Date Time Source
KDMA Decoded METAR 2021/01/20 18:56 UTC NOAA

Davis-Monthan Air Force Base, AZ, United States (KDMA) 32-10N 110-53W
Jan 20, 2021 - 01:56 PM EST / 2021.01.20 1856 UTC
Wind: from the SE (140 degrees) at 12 MPH (10 KT):0
Visibility: 10 mile(s):0
Sky conditions: clear
Temperature: 64.9 F (18.3 C)
Dew Point: 36.7 F (2.6 C)
Relative Humidity: 35%
Pressure (altimeter): 30.12 in. Hg (1019 hPa)
ob: KDMA 201856Z AUTO 14010KT 10SM CLR 18/03 A3012 RMK AO2 SLP174 T01830026 FZRANO
cycle: 19

Station Type Date Time Source
KDMA TAF 2021/01/20 14:23 UTC NOAA

TAF
AMD KDMA 201502Z 2014/2120 10011KT 9999 SCT060 520005 QNH3004INS
BECMG 2022/2023 10011KT 9999 BKN080 620808 QNH3003INS
BECMG 2102/2103 09009KT 9999 VCSH SCT050 BKN080 610809 611705 QNH3006INS
BECMG 2106/2107 09009KT 9000 -SHRA SCT040 BKN070 610809 611705 QNH3001INS
BECMG 2112/2113 11008KT 9999 NSW BKN040 QNH3000INS
BECMG 2118/2119 20009KT 9999 VCSH BKN060 QNH2998INS TX19/2022Z TN10/2014Z

Example: see airport list